createdAt,value
2023-03-20T00:00:09.052Z,90.42
2023-03-20T00:02:36.194Z,90.39
2023-03-20T00:05:02.896Z,90.12
2023-03-20T00:07:29.671Z,89.98
2023-03-20T00:09:57.930Z,90.16
2023-03-20T00:12:28.585Z,90.19
2023-03-20T00:14:55.530Z,90.66
2023-03-20T00:17:22.199Z,90.73
2023-03-20T00:19:49.167Z,90.89
2023-03-20T00:22:15.945Z,90.98
2023-03-20T00:24:42.528Z,91.21
2023-03-20T00:27:12.692Z,91.18
2023-03-20T00:29:39.354Z,91.06
2023-03-20T00:32:13.064Z,90.61
2023-03-20T00:34:39.684Z,90.57
2023-03-20T00:37:06.342Z,90.51
2023-03-20T00:39:32.960Z,90.17
2023-03-20T00:42:03.931Z,90.04
2023-03-20T00:44:45.460Z,90.11
2023-03-20T00:47:17.135Z,90.11
2023-03-20T00:49:45.818Z,90.06
2023-03-20T00:52:12.781Z,90.02
2023-03-20T00:54:39.381Z,90.21
2023-03-20T00:57:14.012Z,90.36
2023-03-20T00:59:51.826Z,90.35
2023-03-20T01:02:18.574Z,90.40
2023-03-20T01:04:45.202Z,90.38
2023-03-20T01:07:14.258Z,90.40
2023-03-20T01:09:41.817Z,90.21
2023-03-20T01:12:11.061Z,90.44
2023-03-20T01:14:37.666Z,90.21
2023-03-20T01:17:04.907Z,90.79
2023-03-20T01:19:31.565Z,90.74
2023-03-20T01:21:58.488Z,90.38
2023-03-20T01:24:25.193Z,90.32
2023-03-20T01:26:52.780Z,90.26
2023-03-20T01:29:24.867Z,90.17
2023-03-20T01:31:52.696Z,90.03
2023-03-20T01:34:21.273Z,89.97
2023-03-20T01:36:50.826Z,89.95
2023-03-20T01:39:19.215Z,89.90
2023-03-20T01:41:47.279Z,89.85
2023-03-20T01:44:29.539Z,89.71
2023-03-20T01:46:58.516Z,89.92
2023-03-20T01:49:25.464Z,89.91
2023-03-20T01:51:56.334Z,90.09
2023-03-20T01:54:26.838Z,90.06
2023-03-20T01:56:59.274Z,89.79
2023-03-20T01:59:30.051Z,89.97
2023-03-20T02:01:56.948Z,89.85
2023-03-20T02:04:28.271Z,89.83
2023-03-20T02:07:01.430Z,89.68
2023-03-20T02:09:37.825Z,90.07
2023-03-20T02:12:08.999Z,90.04
2023-03-20T02:14:36.433Z,90.06
2023-03-20T02:17:13.767Z,90.01
2023-03-20T02:19:51.310Z,90.48
2023-03-20T02:22:51.193Z,90.55
2023-03-20T02:25:42.609Z,90.39
2023-03-20T02:28:21.805Z,90.19
2023-03-20T02:31:05.450Z,90.02
2023-03-20T02:33:36.030Z,90.15
2023-03-20T02:36:26.074Z,90.10
2023-03-20T02:39:07.990Z,89.97
2023-03-20T02:41:40.104Z,90.23
2023-03-20T02:44:29.962Z,90.08
2023-03-20T02:47:09.200Z,90.09
2023-03-20T02:49:37.904Z,90.11
2023-03-20T02:52:29.579Z,90.02
2023-03-20T02:55:34.871Z,90.11
2023-03-20T02:58:13.543Z,90.11
2023-03-20T03:00:47.576Z,89.94
2023-03-20T03:03:21.174Z,90.04
2023-03-20T03:06:08.574Z,89.81
2023-03-20T03:08:39.827Z,89.80
2023-03-20T03:11:08.768Z,89.66
2023-03-20T03:13:53.530Z,89.90
2023-03-20T03:16:25.266Z,89.67
2023-03-20T03:19:08.725Z,89.93
2023-03-20T03:21:37.420Z,90.71
2023-03-20T03:24:04.496Z,90.68
2023-03-20T03:26:34.972Z,90.87
2023-03-20T03:29:07.133Z,90.69
2023-03-20T03:31:37.363Z,90.84
2023-03-20T03:34:04.365Z,90.62
2023-03-20T03:37:02.920Z,90.68
2023-03-20T03:40:06.479Z,90.46
2023-03-20T03:42:40.470Z,90.79
2023-03-20T03:45:14.674Z,90.37
2023-03-20T03:47:52.229Z,90.29
2023-03-20T03:50:27.455Z,90.04
2023-03-20T03:53:00.350Z,90.34
2023-03-20T03:55:32.678Z,90.29
2023-03-20T03:58:20.250Z,90.60
2023-03-20T04:00:50.659Z,90.74
2023-03-20T04:03:20.355Z,91.00
2023-03-20T04:05:47.397Z,90.61
2023-03-20T04:08:14.672Z,90.84
2023-03-20T04:10:41.536Z,90.71
2023-03-20T04:13:08.873Z,90.75
2023-03-20T04:15:35.979Z,90.75
2023-03-20T04:18:04.842Z,90.24
2023-03-20T04:20:31.558Z,90.18
2023-03-20T04:22:58.555Z,90.31
2023-03-20T04:25:29.025Z,90.36
2023-03-20T04:27:59.683Z,90.32
2023-03-20T04:30:38.717Z,90.31
2023-03-20T04:33:14.303Z,90.44
2023-03-20T04:36:01.387Z,90.24
2023-03-20T04:38:28.321Z,90.26
2023-03-20T04:40:55.429Z,90.17
2023-03-20T04:43:22.087Z,90.14
2023-03-20T04:45:48.852Z,90.20
2023-03-20T04:48:15.499Z,90.20
2023-03-20T04:50:42.478Z,89.97
2023-03-20T04:53:09.188Z,89.98
2023-03-20T04:55:36.091Z,90.11
2023-03-20T04:58:03.161Z,90.41
2023-03-20T05:00:30.091Z,89.94
2023-03-20T05:02:56.787Z,90.10
2023-03-20T05:05:23.835Z,90.15
2023-03-20T05:07:52.035Z,90.04
2023-03-20T05:10:31.951Z,90.10
2023-03-20T05:13:04.825Z,90.07
2023-03-20T05:15:58.007Z,90.28
2023-03-20T05:18:46.462Z,90.23
2023-03-20T05:21:27.975Z,90.04
2023-03-20T05:24:10.350Z,89.94
2023-03-20T05:26:48.722Z,90.08
2023-03-20T05:29:31.176Z,90.32
2023-03-20T05:32:14.983Z,90.26
2023-03-20T05:35:09.203Z,90.24
2023-03-20T05:37:47.249Z,90.22
2023-03-20T05:40:25.431Z,89.97
2023-03-20T05:43:11.996Z,89.98
2023-03-20T05:45:57.109Z,89.86
2023-03-20T05:48:42.510Z,89.77
2023-03-20T05:51:38.243Z,89.88
2023-03-20T05:54:15.525Z,89.85
2023-03-20T05:56:59.266Z,89.41
2023-03-20T05:59:48.565Z,89.60
2023-03-20T06:02:36.080Z,89.65
2023-03-20T06:05:11.922Z,89.62
2023-03-20T06:07:44.986Z,89.83
2023-03-20T06:10:14.684Z,89.62
2023-03-20T06:12:41.938Z,89.59
2023-03-20T06:15:09.099Z,90.10
2023-03-20T06:17:40.540Z,90.07
2023-03-20T06:20:08.403Z,90.25
2023-03-20T06:22:35.710Z,90.36
2023-03-20T06:25:02.603Z,90.41
2023-03-20T06:27:35.016Z,90.52
2023-03-20T06:30:01.806Z,89.84
2023-03-20T06:32:32.881Z,89.64
2023-03-20T06:35:01.897Z,90.07
2023-03-20T06:37:29.104Z,90.27
2023-03-20T06:40:04.599Z,90.02
2023-03-20T06:42:31.961Z,89.87
2023-03-20T06:44:59.505Z,89.54
2023-03-20T06:47:42.868Z,89.31
2023-03-20T06:50:10.476Z,89.06
2023-03-20T06:52:38.071Z,88.82
2023-03-20T06:55:19.910Z,88.01
2023-03-20T06:57:47.464Z,87.48
2023-03-20T07:00:16.688Z,86.96
2023-03-20T07:02:43.856Z,87.04
2023-03-20T07:05:14.108Z,86.66
2023-03-20T07:07:40.909Z,86.92
2023-03-20T07:10:08.053Z,87.31
2023-03-20T07:12:34.899Z,87.29
2023-03-20T07:15:01.946Z,87.28
2023-03-20T07:17:29.260Z,86.89
2023-03-20T07:19:56.857Z,85.60
2023-03-20T07:22:29.193Z,84.85
2023-03-20T07:25:11.726Z,83.98
2023-03-20T07:27:38.553Z,84.46
2023-03-20T07:30:06.686Z,84.29
2023-03-20T07:32:33.931Z,84.34
2023-03-20T07:35:01.728Z,83.75
2023-03-20T07:37:28.428Z,83.62
2023-03-20T07:39:59.825Z,84.22
2023-03-20T07:42:30.335Z,84.19
2023-03-20T07:44:59.107Z,84.52
2023-03-20T07:47:26.188Z,84.03
2023-03-20T07:49:52.872Z,84.30
2023-03-20T07:52:19.543Z,82.79
2023-03-20T07:54:46.169Z,82.96
2023-03-20T07:57:14.128Z,82.47
2023-03-20T07:59:40.845Z,82.00
2023-03-20T08:02:07.455Z,81.73
2023-03-20T08:04:34.084Z,82.06
2023-03-20T08:07:00.782Z,82.44
2023-03-20T08:09:27.639Z,80.98
2023-03-20T08:11:54.255Z,81.03
2023-03-20T08:14:20.934Z,81.01
2023-03-20T08:16:50.490Z,78.93
2023-03-20T08:19:22.222Z,76.46
2023-03-20T08:21:50.066Z,77.03
2023-03-20T08:24:16.681Z,76.28
2023-03-20T08:26:44.392Z,76.13
2023-03-20T08:29:11.585Z,77.38
2023-03-20T08:31:38.626Z,77.83
2023-03-20T08:34:05.212Z,78.42
2023-03-20T08:36:31.813Z,78.74
2023-03-20T08:38:58.432Z,79.43
2023-03-20T08:41:25.461Z,78.87
2023-03-20T08:43:52.351Z,78.69
2023-03-20T08:46:19.048Z,78.45
2023-03-20T08:48:45.874Z,78.16
2023-03-20T08:51:12.516Z,77.53
2023-03-20T08:53:39.136Z,77.27
2023-03-20T08:56:06.807Z,77.69
2023-03-20T08:58:33.503Z,77.38
2023-03-20T09:01:05.835Z,75.85
2023-03-20T09:03:32.526Z,76.25
2023-03-20T09:05:59.147Z,75.05
2023-03-20T09:08:25.807Z,75.36
2023-03-20T09:10:53.575Z,75.81
2023-03-20T09:13:27.100Z,75.89
2023-03-20T09:15:55.712Z,74.63
2023-03-20T09:18:23.366Z,76.76
2023-03-20T09:20:50.183Z,74.83
2023-03-20T09:23:17.378Z,73.80
2023-03-20T09:25:44.080Z,74.20
2023-03-20T09:28:10.717Z,72.24
2023-03-20T09:30:37.617Z,72.06
2023-03-20T09:33:04.551Z,70.49
2023-03-20T09:35:31.475Z,72.35
2023-03-20T09:37:58.140Z,72.88
2023-03-20T09:40:29.229Z,72.96
2023-03-20T09:43:01.779Z,73.48
2023-03-20T09:46:06.558Z,71.93
2023-03-20T09:48:54.272Z,71.94
2023-03-20T09:51:47.260Z,71.37
2023-03-20T09:54:26.128Z,71.61
2023-03-20T09:56:54.188Z,72.37
2023-03-20T09:59:21.428Z,71.06
2023-03-20T10:01:54.944Z,69.54
2023-03-20T10:04:24.364Z,69.50
2023-03-20T10:06:51.012Z,69.76
2023-03-20T10:09:17.604Z,68.58
2023-03-20T10:11:46.957Z,71.63
2023-03-20T10:14:27.425Z,70.24
2023-03-20T10:17:18.210Z,71.13
2023-03-20T10:19:51.840Z,71.13
2023-03-20T10:22:34.933Z,69.79
2023-03-20T10:25:15.846Z,69.97
2023-03-20T10:27:49.753Z,71.17
2023-03-20T10:30:44.304Z,71.27
2023-03-20T10:33:27.119Z,71.68
2023-03-20T10:36:15.718Z,72.45
2023-03-20T10:39:10.011Z,72.16
2023-03-20T10:41:38.896Z,72.73
2023-03-20T10:44:06.971Z,72.89
2023-03-20T10:46:37.143Z,72.36
2023-03-20T10:49:08.853Z,71.62
2023-03-20T10:51:59.650Z,72.07
2023-03-20T10:54:57.015Z,72.31
2023-03-20T10:57:26.260Z,72.26
2023-03-20T10:59:55.028Z,71.16
2023-03-20T11:02:23.395Z,72.84
2023-03-20T11:04:50.629Z,71.05
2023-03-20T11:07:34.348Z,71.12
2023-03-20T11:10:03.997Z,72.30
2023-03-20T11:12:35.690Z,72.55
2023-03-20T11:15:22.036Z,72.09
2023-03-20T11:17:58.844Z,71.72
2023-03-20T11:20:26.444Z,71.12
2023-03-20T11:22:59.388Z,71.94
2023-03-20T11:25:32.780Z,71.39
2023-03-20T11:28:30.705Z,70.99
2023-03-20T11:31:06.991Z,72.49
2023-03-20T11:33:41.087Z,72.68
2023-03-20T11:36:12.072Z,71.46
2023-03-20T11:38:46.057Z,71.26
2023-03-20T11:41:24.378Z,69.74
2023-03-20T11:43:51.025Z,69.45
2023-03-20T11:46:21.300Z,68.83
2023-03-20T11:48:48.036Z,68.11
2023-03-20T11:51:19.825Z,66.76
2023-03-20T11:53:49.548Z,68.58
2023-03-20T11:56:30.531Z,68.08
2023-03-20T11:59:03.530Z,69.07
2023-03-20T12:01:38.917Z,69.19
2023-03-20T12:04:11.342Z,69.21
2023-03-20T12:07:06.836Z,66.00
2023-03-20T12:09:43.645Z,64.21
2023-03-20T12:12:23.269Z,64.69
2023-03-20T12:14:49.847Z,63.33
2023-03-20T12:17:28.108Z,61.94
2023-03-20T12:19:58.201Z,60.68
2023-03-20T12:22:31.077Z,61.91
2023-03-20T12:25:23.552Z,63.92
2023-03-20T12:27:56.481Z,63.94
2023-03-20T12:30:31.697Z,64.54
2023-03-20T12:33:05.012Z,64.36
2023-03-20T12:35:34.470Z,61.91
2023-03-20T12:38:01.233Z,60.35
2023-03-20T12:40:43.719Z,61.21
2023-03-20T12:43:22.860Z,60.11
2023-03-20T12:46:22.700Z,55.63
2023-03-20T12:48:49.219Z,57.30
2023-03-20T12:51:39.953Z,57.05
2023-03-20T12:54:28.114Z,57.90
2023-03-20T12:57:03.241Z,57.72
2023-03-20T12:59:44.800Z,57.33
2023-03-20T13:02:16.767Z,59.14
2023-03-20T13:05:38.689Z,60.00
2023-03-20T13:08:23.584Z,58.42
2023-03-20T13:10:55.358Z,57.37
2023-03-20T13:13:33.965Z,57.87
2023-03-20T13:16:12.704Z,59.87
2023-03-20T13:18:53.876Z,59.45
2023-03-20T13:21:28.165Z,60.00
2023-03-20T13:24:14.785Z,58.85
2023-03-20T13:27:13.020Z,59.80
2023-03-20T13:29:46.041Z,59.91
2023-03-20T13:32:24.480Z,57.95
2023-03-20T13:35:15.744Z,57.47
2023-03-20T13:37:46.372Z,57.41
2023-03-20T13:40:22.752Z,53.95
2023-03-20T13:43:28.638Z,56.28
2023-03-20T13:46:04.890Z,54.80
2023-03-20T13:48:37.340Z,54.65
2023-03-20T13:51:07.282Z,55.37
2023-03-20T13:54:03.183Z,55.82
2023-03-20T13:56:42.879Z,56.36
2023-03-20T13:59:31.315Z,56.88
2023-03-20T14:02:17.991Z,56.69
2023-03-20T14:04:44.888Z,58.21
2023-03-20T14:07:33.925Z,57.09
2023-03-20T14:10:22.243Z,57.56
2023-03-20T14:13:20.554Z,58.43
2023-03-20T14:15:53.078Z,58.90
2023-03-20T14:18:22.151Z,58.97
2023-03-20T14:20:57.489Z,58.06
2023-03-20T14:23:32.320Z,59.81
2023-03-20T14:25:59.719Z,58.19
2023-03-20T14:28:30.053Z,59.34
2023-03-20T14:31:13.085Z,60.40
2023-03-20T14:33:44.429Z,57.72
2023-03-20T14:36:18.507Z,58.82
2023-03-20T14:38:54.680Z,59.06
2023-03-20T14:41:54.299Z,59.68
2023-03-20T14:44:59.493Z,58.96
2023-03-20T14:47:37.426Z,58.66
2023-03-20T14:50:26.262Z,59.60
2023-03-20T14:52:58.991Z,58.68
2023-03-20T14:55:27.837Z,58.40
2023-03-20T14:57:57.416Z,60.54
2023-03-20T15:00:30.300Z,57.41
2023-03-20T15:03:06.765Z,58.36
2023-03-20T15:05:34.500Z,59.47
2023-03-20T15:08:25.638Z,59.02
2023-03-20T15:10:55.891Z,58.49
2023-03-20T15:13:24.741Z,58.35
2023-03-20T15:16:07.044Z,60.92
2023-03-20T15:18:37.645Z,61.17
2023-03-20T15:21:04.618Z,62.30
2023-03-20T15:23:31.346Z,60.70
2023-03-20T15:26:00.501Z,60.73
2023-03-20T15:28:27.649Z,62.78
2023-03-20T15:30:57.993Z,61.23
2023-03-20T15:33:29.012Z,61.58
2023-03-20T15:35:56.317Z,63.72
2023-03-20T15:38:30.480Z,61.64
2023-03-20T15:40:57.896Z,61.79
2023-03-20T15:43:26.315Z,60.07
2023-03-20T15:46:14.156Z,61.28
2023-03-20T15:48:48.139Z,61.98
2023-03-20T15:51:14.860Z,62.82
2023-03-20T15:53:46.561Z,61.61
2023-03-20T15:56:18.769Z,62.00
2023-03-20T15:58:48.020Z,62.98
2023-03-20T16:01:20.235Z,61.28
2023-03-20T16:03:47.746Z,60.85
2023-03-20T16:06:18.711Z,61.05
2023-03-20T16:08:47.005Z,59.06
2023-03-20T16:11:16.780Z,60.67
2023-03-20T16:13:48.507Z,59.32
2023-03-20T16:16:22.101Z,60.15
2023-03-20T16:18:50.841Z,59.85
2023-03-20T16:21:28.697Z,59.60
2023-03-20T16:23:57.507Z,59.64
2023-03-20T16:26:25.820Z,59.75
2023-03-20T16:28:58.618Z,59.05
2023-03-20T16:31:36.363Z,60.19
2023-03-20T16:34:08.288Z,58.87
2023-03-20T16:36:37.554Z,60.04
2023-03-20T16:39:07.827Z,58.80
2023-03-20T16:41:36.864Z,59.59
2023-03-20T16:44:19.592Z,59.86
2023-03-20T16:47:01.837Z,60.09
2023-03-20T16:49:34.781Z,60.39
2023-03-20T16:52:05.297Z,61.15
2023-03-20T16:54:35.287Z,62.52
2023-03-20T16:57:06.098Z,62.13
2023-03-20T16:59:32.730Z,62.87
2023-03-20T17:02:00.336Z,64.35
2023-03-20T17:04:37.160Z,63.39
2023-03-20T17:07:18.540Z,64.32
2023-03-20T17:10:00.538Z,65.64
2023-03-20T17:12:31.387Z,64.24
2023-03-20T17:14:58.033Z,64.54
2023-03-20T17:17:26.065Z,65.87
2023-03-20T17:19:53.299Z,64.67
2023-03-20T17:22:25.351Z,64.30
2023-03-20T17:24:52.617Z,65.03
2023-03-20T17:27:20.282Z,63.79
2023-03-20T17:29:47.523Z,66.23
2023-03-20T17:32:16.875Z,69.36
2023-03-20T17:34:43.841Z,71.27
2023-03-20T17:37:16.675Z,74.09
2023-03-20T17:39:43.422Z,74.37
2023-03-20T17:42:18.564Z,73.86
2023-03-20T17:44:45.646Z,75.03
2023-03-20T17:47:16.449Z,76.21
2023-03-20T17:49:44.066Z,74.56
2023-03-20T17:52:19.069Z,73.17
2023-03-20T17:54:46.668Z,74.46
2023-03-20T17:57:21.267Z,74.47
2023-03-20T17:59:49.922Z,73.56
2023-03-20T18:02:18.382Z,72.90
2023-03-20T18:04:46.263Z,72.69
2023-03-20T18:07:13.780Z,71.55
2023-03-20T18:09:41.400Z,72.68
2023-03-20T18:12:15.753Z,73.93
2023-03-20T18:14:42.973Z,73.59
2023-03-20T18:17:12.342Z,72.99
2023-03-20T18:19:39.281Z,72.29
2023-03-20T18:22:06.965Z,72.80
2023-03-20T18:24:33.612Z,72.51
2023-03-20T18:27:00.610Z,73.53
2023-03-20T18:29:27.323Z,73.07
2023-03-20T18:31:54.004Z,73.01
2023-03-20T18:34:21.367Z,71.67
2023-03-20T18:36:48.059Z,72.56
2023-03-20T18:39:19.986Z,72.22
2023-03-20T18:41:46.614Z,73.47
2023-03-20T18:44:13.662Z,72.90
2023-03-20T18:46:40.821Z,72.76
2023-03-20T18:49:07.682Z,72.84
2023-03-20T18:51:34.362Z,73.77
2023-03-20T18:54:01.015Z,73.49
2023-03-20T18:56:28.491Z,73.60
2023-03-20T18:58:55.234Z,72.70
2023-03-20T19:01:22.296Z,73.62
2023-03-20T19:03:49.647Z,74.67
2023-03-20T19:06:21.207Z,74.56
2023-03-20T19:08:48.485Z,75.71
2023-03-20T19:11:17.821Z,76.19
2023-03-20T19:13:49.297Z,75.57
2023-03-20T19:16:32.303Z,75.30
2023-03-20T19:19:01.502Z,75.93
2023-03-20T19:21:29.521Z,74.04
2023-03-20T19:23:58.179Z,72.92
2023-03-20T19:26:26.051Z,73.36
2023-03-20T19:28:54.038Z,73.96
2023-03-20T19:31:22.151Z,74.26
2023-03-20T19:33:49.461Z,74.48
2023-03-20T19:36:19.179Z,73.06
2023-03-20T19:38:45.916Z,73.22
2023-03-20T19:41:14.756Z,72.53
2023-03-20T19:43:52.047Z,72.91
2023-03-20T19:46:38.102Z,74.56
2023-03-20T19:49:06.723Z,72.95
2023-03-20T19:51:33.577Z,73.99
2023-03-20T19:54:00.277Z,74.22
2023-03-20T19:56:27.165Z,73.60
2023-03-20T19:58:54.734Z,74.05
2023-03-20T20:01:25.813Z,74.17
2023-03-20T20:03:57.480Z,74.79
2023-03-20T20:06:30.935Z,73.76
2023-03-20T20:08:58.802Z,74.11
2023-03-20T20:11:25.461Z,72.88
2023-03-20T20:14:09.402Z,72.88
2023-03-20T20:16:39.706Z,72.75
2023-03-20T20:19:06.813Z,73.96
2023-03-20T20:24:20.436Z,73.04
2023-03-20T20:26:55.217Z,73.57
2023-03-20T20:29:26.887Z,73.70
2023-03-20T20:31:53.633Z,73.59
2023-03-20T20:39:54.440Z,75.28
2023-03-20T20:42:21.585Z,74.62
2023-03-20T20:44:48.487Z,74.56
2023-03-20T20:47:15.933Z,75.41
2023-03-20T20:49:42.721Z,75.13
2023-03-20T20:52:10.082Z,77.17
2023-03-20T20:54:36.782Z,76.73
2023-03-20T20:57:03.718Z,77.50
2023-03-20T20:59:30.382Z,77.23
2023-03-20T21:01:57.057Z,77.75
2023-03-20T21:04:23.989Z,77.20
2023-03-20T21:07:10.253Z,75.73
2023-03-20T21:09:37.500Z,74.45
2023-03-20T21:12:04.761Z,74.25
2023-03-20T21:14:31.742Z,74.01
2023-03-20T21:17:01.390Z,74.86
2023-03-20T21:19:35.672Z,75.09
2023-03-20T21:22:02.249Z,76.50
2023-03-20T21:24:32.741Z,74.46
2023-03-20T21:27:00.533Z,75.18
2023-03-20T21:29:27.239Z,74.53
2023-03-20T21:31:53.939Z,73.83
2023-03-20T21:34:20.874Z,73.86
2023-03-20T21:36:49.287Z,73.71
2023-03-20T21:39:16.541Z,72.94
2023-03-20T21:41:43.303Z,73.51
2023-03-20T21:44:16.670Z,73.86
2023-03-20T21:56:17.118Z,73.73
2023-03-20T21:58:33.157Z,73.74
2023-03-20T22:04:03.478Z,73.25
2023-03-20T22:07:13.088Z,74.55
2023-03-20T22:23:38.491Z,79.34
2023-03-20T22:26:38.076Z,79.80
2023-03-20T22:31:55.136Z,79.88
2023-03-20T22:40:22.895Z,80.33
2023-03-20T22:42:51.468Z,80.20
2023-03-20T22:45:12.879Z,80.02
2023-03-20T22:47:39.807Z,80.55
2023-03-20T22:50:07.113Z,80.63
2023-03-20T22:52:49.947Z,80.73
2023-03-20T22:55:17.418Z,80.32
2023-03-20T22:57:56.033Z,80.00
2023-03-20T23:00:31.079Z,80.16
2023-03-20T23:03:12.913Z,80.20
2023-03-20T23:05:42.887Z,80.41
2023-03-20T23:08:11.204Z,80.19
2023-03-20T23:10:42.758Z,79.73
2023-03-20T23:13:09.438Z,80.04
2023-03-20T23:15:36.153Z,80.34
2023-03-20T23:18:03.437Z,79.96
2023-03-20T23:20:30.101Z,80.25
2023-03-20T23:22:56.713Z,79.61
2023-03-20T23:25:36.386Z,79.46
2023-03-20T23:28:06.173Z,79.98
2023-03-20T23:30:41.967Z,79.96
2023-03-20T23:33:11.865Z,80.26
2023-03-20T23:35:38.487Z,80.35
2023-03-20T23:38:05.426Z,80.83
2023-03-20T23:40:32.315Z,80.77
2023-03-20T23:42:58.947Z,80.98
2023-03-20T23:45:25.564Z,81.34
2023-03-20T23:47:52.398Z,81.01
2023-03-20T23:50:30.121Z,81.07
2023-03-20T23:53:17.153Z,81.05
2023-03-20T23:55:47.084Z,81.10
2023-03-20T23:58:14.428Z,81.23
